sensor_id;sensor_type;location;lat;lon;timestamp;pressure;altitude;pressure_sealevel;temperature;humidity
28428;BME280;15662;49.128;8.520;2023-07-20T00:01:01;100259.22;;;25.56;34.33
28428;BME280;15662;49.128;8.520;2023-07-20T00:03:30;100264.66;;;25.56;34.46
28428;BME280;15662;49.128;8.520;2023-07-20T00:05:59;100252.91;;;25.45;34.73
28428;BME280;15662;49.128;8.520;2023-07-20T00:08:27;100272.50;;;25.49;34.71
28428;BME280;15662;49.128;8.520;2023-07-20T00:10:56;100262.31;;;25.41;34.84
28428;BME280;15662;49.128;8.520;2023-07-20T00:13:25;100268.91;;;25.39;34.80
28428;BME280;15662;49.128;8.520;2023-07-20T00:15:53;100263.56;;;25.28;34.88
28428;BME280;15662;49.128;8.520;2023-07-20T00:18:22;100273.56;;;25.27;35.12
28428;BME280;15662;49.128;8.520;2023-07-20T00:20:50;100274.38;;;25.18;35.29
28428;BME280;15662;49.128;8.520;2023-07-20T00:23:19;100263.47;;;25.08;35.14
28428;BME280;15662;49.128;8.520;2023-07-20T00:25:51;100261.75;;;25.07;35.11
28428;BME280;15662;49.128;8.520;2023-07-20T00:28:20;100278.75;;;25.09;35.44
28428;BME280;15662;49.128;8.520;2023-07-20T00:30:49;100268.91;;;25.08;35.17
28428;BME280;15662;49.128;8.520;2023-07-20T00:33:17;100268.28;;;25.05;35.46
28428;BME280;15662;49.128;8.520;2023-07-20T00:35:45;100274.81;;;25.02;35.39
28428;BME280;15662;49.128;8.520;2023-07-20T00:38:16;100270.09;;;24.94;35.33
28428;BME280;15662;49.128;8.520;2023-07-20T00:40:44;100277.59;;;24.91;35.66
28428;BME280;15662;49.128;8.520;2023-07-20T00:43:12;100275.44;;;24.85;35.79
28428;BME280;15662;49.128;8.520;2023-07-20T00:45:40;100267.47;;;24.83;35.67
28428;BME280;15662;49.128;8.520;2023-07-20T00:48:08;100270.41;;;24.80;35.69
28428;BME280;15662;49.128;8.520;2023-07-20T00:50:36;100261.56;;;24.78;36.09
28428;BME280;15662;49.128;8.520;2023-07-20T00:53:05;100265.41;;;24.76;36.18
28428;BME280;15662;49.128;8.520;2023-07-20T00:55:34;100276.38;;;24.74;35.87
28428;BME280;15662;49.128;8.520;2023-07-20T00:58:02;100273.91;;;24.71;36.28
28428;BME280;15662;49.128;8.520;2023-07-20T01:00:32;100270.28;;;24.61;35.95
28428;BME280;15662;49.128;8.520;2023-07-20T01:03:00;100266.59;;;24.62;36.25
28428;BME280;15662;49.128;8.520;2023-07-20T01:06:10;100276.56;;;24.61;36.36
28428;BME280;15662;49.128;8.520;2023-07-20T01:12:26;100281.06;;;24.51;36.20
28428;BME280;15662;49.128;8.520;2023-07-20T01:14:56;100277.63;;;24.49;36.40
28428;BME280;15662;49.128;8.520;2023-07-20T01:17:24;100269.50;;;24.49;36.60
28428;BME280;15662;49.128;8.520;2023-07-20T01:19:52;100276.03;;;24.47;36.38
28428;BME280;15662;49.128;8.520;2023-07-20T01:23:06;100277.16;;;24.44;36.66
28428;BME280;15662;49.128;8.520;2023-07-20T01:32:01;100280.16;;;24.30;36.68
28428;BME280;15662;49.128;8.520;2023-07-20T01:34:34;100265.13;;;24.26;36.77
28428;BME280;15662;49.128;8.520;2023-07-20T01:37:05;100268.00;;;24.24;36.91
28428;BME280;15662;49.128;8.520;2023-07-20T01:39:35;100257.94;;;24.15;36.64
28428;BME280;15662;49.128;8.520;2023-07-20T01:42:05;100279.94;;;24.22;37.03
28428;BME280;15662;49.128;8.520;2023-07-20T01:44:34;100257.19;;;24.13;37.09
28428;BME280;15662;49.128;8.520;2023-07-20T01:47:04;100251.44;;;24.06;37.39
28428;BME280;15662;49.128;8.520;2023-07-20T01:49:33;100266.28;;;24.12;37.39
28428;BME280;15662;49.128;8.520;2023-07-20T01:52:01;100268.28;;;24.10;37.39
28428;BME280;15662;49.128;8.520;2023-07-20T01:54:32;100254.66;;;24.00;37.54
28428;BME280;15662;49.128;8.520;2023-07-20T01:57:00;100267.53;;;24.08;37.45
28428;BME280;15662;49.128;8.520;2023-07-20T01:59:29;100271.25;;;24.07;37.56
28428;BME280;15662;49.128;8.520;2023-07-20T02:01:58;100264.50;;;24.01;37.66
28428;BME280;15662;49.128;8.520;2023-07-20T02:04:27;100276.41;;;23.99;37.43
28428;BME280;15662;49.128;8.520;2023-07-20T02:06:56;100275.94;;;23.93;37.80
28428;BME280;15662;49.128;8.520;2023-07-20T02:09:24;100270.66;;;23.92;37.87
28428;BME280;15662;49.128;8.520;2023-07-20T02:11:53;100278.94;;;23.90;37.84
28428;BME280;15662;49.128;8.520;2023-07-20T02:14:21;100272.41;;;23.82;37.79
28428;BME280;15662;49.128;8.520;2023-07-20T02:16:50;100276.59;;;23.86;38.03
28428;BME280;15662;49.128;8.520;2023-07-20T02:19:21;100276.13;;;23.81;37.96
28428;BME280;15662;49.128;8.520;2023-07-20T02:21:49;100269.00;;;23.80;37.87
28428;BME280;15662;49.128;8.520;2023-07-20T02:24:18;100285.09;;;23.81;37.96
28428;BME280;15662;49.128;8.520;2023-07-20T02:26:46;100276.38;;;23.78;37.96
28428;BME280;15662;49.128;8.520;2023-07-20T02:29:15;100280.19;;;23.75;38.29
28428;BME280;15662;49.128;8.520;2023-07-20T02:31:43;100282.28;;;23.72;38.18
28428;BME280;15662;49.128;8.520;2023-07-20T02:34:13;100280.81;;;23.67;38.24
28428;BME280;15662;49.128;8.520;2023-07-20T02:36:41;100278.56;;;23.61;38.61
28428;BME280;15662;49.128;8.520;2023-07-20T02:39:10;100266.16;;;23.59;38.53
28428;BME280;15662;49.128;8.520;2023-07-20T02:41:41;100280.44;;;23.61;38.52
28428;BME280;15662;49.128;8.520;2023-07-20T02:44:10;100262.22;;;23.52;38.65
28428;BME280;15662;49.128;8.520;2023-07-20T02:46:38;100278.09;;;23.56;38.39
28428;BME280;15662;49.128;8.520;2023-07-20T02:49:07;100284.59;;;23.54;38.47
28428;BME280;15662;49.128;8.520;2023-07-20T02:51:35;100276.28;;;23.46;38.68
28428;BME280;15662;49.128;8.520;2023-07-20T02:54:05;100264.22;;;23.38;38.95
28428;BME280;15662;49.128;8.520;2023-07-20T02:56:34;100278.34;;;23.42;38.87
28428;BME280;15662;49.128;8.520;2023-07-20T02:59:04;100275.78;;;23.40;38.83
28428;BME280;15662;49.128;8.520;2023-07-20T03:01:33;100265.81;;;23.30;38.81
28428;BME280;15662;49.128;8.520;2023-07-20T03:04:02;100270.13;;;23.32;38.87
28428;BME280;15662;49.128;8.520;2023-07-20T03:06:31;100272.59;;;23.35;38.95
28428;BME280;15662;49.128;8.520;2023-07-20T03:09:00;100278.59;;;23.39;39.18
28428;BME280;15662;49.128;8.520;2023-07-20T03:11:28;100282.91;;;23.41;39.07
28428;BME280;15662;49.128;8.520;2023-07-20T03:13:58;100287.31;;;23.42;38.93
28428;BME280;15662;49.128;8.520;2023-07-20T03:16:26;100283.91;;;23.40;39.00
28428;BME280;15662;49.128;8.520;2023-07-20T03:18:55;100285.97;;;23.37;39.26
28428;BME280;15662;49.128;8.520;2023-07-20T03:21:26;100286.94;;;23.13;39.27
28428;BME280;15662;49.128;8.520;2023-07-20T03:23:58;100294.56;;;23.20;39.15
28428;BME280;15662;49.128;8.520;2023-07-20T03:26:27;100288.28;;;23.19;39.14
28428;BME280;15662;49.128;8.520;2023-07-20T03:28:59;100303.66;;;23.18;39.51
28428;BME280;15662;49.128;8.520;2023-07-20T03:31:29;100296.03;;;23.12;39.48
28428;BME280;15662;49.128;8.520;2023-07-20T03:34:00;100297.91;;;23.12;39.88
28428;BME280;15662;49.128;8.520;2023-07-20T03:36:29;100299.84;;;23.10;39.77
28428;BME280;15662;49.128;8.520;2023-07-20T03:39:02;100295.91;;;23.03;39.80
28428;BME280;15662;49.128;8.520;2023-07-20T03:41:34;100301.19;;;23.04;39.67
28428;BME280;15662;49.128;8.520;2023-07-20T03:44:03;100282.13;;;22.95;39.90
28428;BME280;15662;49.128;8.520;2023-07-20T03:46:34;100279.91;;;22.88;39.95
28428;BME280;15662;49.128;8.520;2023-07-20T03:49:03;100309.78;;;22.98;39.92
28428;BME280;15662;49.128;8.520;2023-07-20T03:51:33;100294.50;;;22.86;39.95
28428;BME280;15662;49.128;8.520;2023-07-20T03:54:01;100299.78;;;22.87;40.03
28428;BME280;15662;49.128;8.520;2023-07-20T03:56:30;100311.25;;;22.91;40.34
28428;BME280;15662;49.128;8.520;2023-07-20T03:59:04;100305.97;;;22.89;40.33
28428;BME280;15662;49.128;8.520;2023-07-20T04:01:33;100299.00;;;22.74;40.35
28428;BME280;15662;49.128;8.520;2023-07-20T04:04:07;100319.06;;;22.83;40.51
28428;BME280;15662;49.128;8.520;2023-07-20T04:06:37;100319.19;;;22.81;40.60
28428;BME280;15662;49.128;8.520;2023-07-20T04:09:06;100317.44;;;22.80;40.71
28428;BME280;15662;49.128;8.520;2023-07-20T04:11:34;100305.53;;;22.72;40.95
28428;BME280;15662;49.128;8.520;2023-07-20T04:14:03;100327.16;;;22.83;40.95
28428;BME280;15662;49.128;8.520;2023-07-20T04:16:31;100328.88;;;22.84;40.83
28428;BME280;15662;49.128;8.520;2023-07-20T04:19:00;100326.31;;;22.82;40.86
28428;BME280;15662;49.128;8.520;2023-07-20T04:21:29;100325.31;;;22.83;41.26
28428;BME280;15662;49.128;8.520;2023-07-20T04:23:57;100317.69;;;22.77;41.23
28428;BME280;15662;49.128;8.520;2023-07-20T04:26:27;100321.13;;;22.79;41.40
28428;BME280;15662;49.128;8.520;2023-07-20T04:28:57;100325.69;;;22.79;41.34
28428;BME280;15662;49.128;8.520;2023-07-20T04:31:34;100333.31;;;22.85;41.35
28428;BME280;15662;49.128;8.520;2023-07-20T04:34:03;100329.66;;;22.86;41.42
28428;BME280;15662;49.128;8.520;2023-07-20T04:36:34;100324.97;;;22.88;41.36
28428;BME280;15662;49.128;8.520;2023-07-20T04:39:06;100323.59;;;22.71;41.18
28428;BME280;15662;49.128;8.520;2023-07-20T04:41:53;100331.25;;;22.88;41.21
28428;BME280;15662;49.128;8.520;2023-07-20T04:44:22;100305.19;;;22.87;41.25
28428;BME280;15662;49.128;8.520;2023-07-20T04:46:51;100317.53;;;23.03;41.35
28428;BME280;15662;49.128;8.520;2023-07-20T04:49:19;100325.66;;;23.14;41.27
28428;BME280;15662;49.128;8.520;2023-07-20T04:51:48;100330.56;;;23.20;41.46
28428;BME280;15662;49.128;8.520;2023-07-20T04:54:18;100311.41;;;23.23;41.29
28428;BME280;15662;49.128;8.520;2023-07-20T04:56:49;100322.59;;;23.30;41.39
28428;BME280;15662;49.128;8.520;2023-07-20T04:59:20;100323.34;;;23.32;41.42
28428;BME280;15662;49.128;8.520;2023-07-20T05:01:49;100329.38;;;23.35;41.39
28428;BME280;15662;49.128;8.520;2023-07-20T05:04:18;100327.53;;;23.36;41.39
28428;BME280;15662;49.128;8.520;2023-07-20T05:06:49;100325.44;;;23.17;41.52
28428;BME280;15662;49.128;8.520;2023-07-20T05:09:18;100319.28;;;23.26;41.47
28428;BME280;15662;49.128;8.520;2023-07-20T05:11:48;100328.41;;;23.36;41.36
28428;BME280;15662;49.128;8.520;2023-07-20T05:14:17;100335.28;;;23.40;41.77
28428;BME280;15662;49.128;8.520;2023-07-20T05:16:47;100323.22;;;23.44;41.74
28428;BME280;15662;49.128;8.520;2023-07-20T05:19:15;100315.84;;;23.47;41.57
28428;BME280;15662;49.128;8.520;2023-07-20T05:21:43;100322.47;;;23.54;41.55
28428;BME280;15662;49.128;8.520;2023-07-20T05:24:12;100309.22;;;23.51;41.63
28428;BME280;15662;49.128;8.520;2023-07-20T05:26:41;100327.28;;;23.61;41.57
28428;BME280;15662;49.128;8.520;2023-07-20T05:29:10;100330.75;;;23.63;41.80
28428;BME280;15662;49.128;8.520;2023-07-20T05:31:38;100325.09;;;23.66;41.75
28428;BME280;15662;49.128;8.520;2023-07-20T05:34:06;100327.44;;;23.71;41.67
28428;BME280;15662;49.128;8.520;2023-07-20T05:36:35;100318.69;;;23.67;41.59
28428;BME280;15662;49.128;8.520;2023-07-20T05:39:04;100326.44;;;23.72;41.77
28428;BME280;15662;49.128;8.520;2023-07-20T05:41:33;100332.47;;;23.76;41.61
28428;BME280;15662;49.128;8.520;2023-07-20T05:44:05;100322.63;;;23.75;41.84
28428;BME280;15662;49.128;8.520;2023-07-20T05:46:38;100322.38;;;23.78;41.90
28428;BME280;15662;49.128;8.520;2023-07-20T05:49:23;100315.97;;;23.79;41.74
28428;BME280;15662;49.128;8.520;2023-07-20T05:51:51;100312.78;;;23.85;42.01
28428;BME280;15662;49.128;8.520;2023-07-20T05:54:20;100305.84;;;23.92;42.06
28428;BME280;15662;49.128;8.520;2023-07-20T05:56:48;100320.84;;;24.07;41.71
28428;BME280;15662;49.128;8.520;2023-07-20T05:59:17;100334.31;;;24.18;41.98
28428;BME280;15662;49.128;8.520;2023-07-20T06:01:47;100334.69;;;24.25;41.92
28428;BME280;15662;49.128;8.520;2023-07-20T06:04:17;100332.59;;;24.29;41.81
28428;BME280;15662;49.128;8.520;2023-07-20T06:06:45;100328.63;;;24.33;41.61
28428;BME280;15662;49.128;8.520;2023-07-20T06:09:14;100331.47;;;24.42;41.74
28428;BME280;15662;49.128;8.520;2023-07-20T06:11:47;100338.69;;;24.53;41.55
28428;BME280;15662;49.128;8.520;2023-07-20T06:14:26;100329.66;;;24.64;41.66
28428;BME280;15662;49.128;8.520;2023-07-20T06:16:55;100333.31;;;24.74;41.28
28428;BME280;15662;49.128;8.520;2023-07-20T06:19:23;100339.28;;;24.78;41.02
28428;BME280;15662;49.128;8.520;2023-07-20T06:21:53;100328.44;;;24.78;41.18
28428;BME280;15662;49.128;8.520;2023-07-20T06:24:22;100334.63;;;24.80;41.01
28428;BME280;15662;49.128;8.520;2023-07-20T06:26:50;100337.06;;;24.83;41.02
28428;BME280;15662;49.128;8.520;2023-07-20T06:29:19;100323.25;;;24.86;41.21
28428;BME280;15662;49.128;8.520;2023-07-20T06:31:50;100345.31;;;25.02;40.81
28428;BME280;15662;49.128;8.520;2023-07-20T06:34:18;100325.22;;;25.05;41.08
28428;BME280;15662;49.128;8.520;2023-07-20T06:36:50;100331.91;;;25.21;40.90
28428;BME280;15662;49.128;8.520;2023-07-20T06:39:19;100316.09;;;25.27;40.89
28428;BME280;15662;49.128;8.520;2023-07-20T06:41:50;100321.75;;;25.44;40.80
28428;BME280;15662;49.128;8.520;2023-07-20T06:44:22;100330.56;;;25.67;41.02
28428;BME280;15662;49.128;8.520;2023-07-20T06:46:51;100321.75;;;25.75;40.28
28428;BME280;15662;49.128;8.520;2023-07-20T06:49:26;100337.41;;;25.92;39.91
28428;BME280;15662;49.128;8.520;2023-07-20T06:51:57;100343.81;;;25.91;40.16
28428;BME280;15662;49.128;8.520;2023-07-20T06:54:25;100327.09;;;25.86;39.89
28428;BME280;15662;49.128;8.520;2023-07-20T06:56:53;100323.50;;;25.86;39.55
28428;BME280;15662;49.128;8.520;2023-07-20T06:59:25;100338.63;;;25.79;40.12
28428;BME280;15662;49.128;8.520;2023-07-20T07:01:54;100332.06;;;25.91;40.30
28428;BME280;15662;49.128;8.520;2023-07-20T07:04:23;100336.69;;;26.10;40.28
28428;BME280;15662;49.128;8.520;2023-07-20T07:06:52;100343.88;;;26.30;40.20
28428;BME280;15662;49.128;8.520;2023-07-20T07:09:20;100333.75;;;26.42;39.83
28428;BME280;15662;49.128;8.520;2023-07-20T07:11:48;100325.47;;;26.43;39.45
28428;BME280;15662;49.128;8.520;2023-07-20T07:14:17;100334.78;;;26.60;39.42
28428;BME280;15662;49.128;8.520;2023-07-20T07:16:45;100336.06;;;26.66;39.00
28428;BME280;15662;49.128;8.520;2023-07-20T07:19:14;100334.06;;;26.78;39.24
28428;BME280;15662;49.128;8.520;2023-07-20T07:21:43;100339.75;;;26.94;39.15
28428;BME280;15662;49.128;8.520;2023-07-20T07:24:12;100347.50;;;27.08;38.87
28428;BME280;15662;49.128;8.520;2023-07-20T07:26:46;100336.16;;;27.13;38.84
28428;BME280;15662;49.128;8.520;2023-07-20T07:29:15;100336.03;;;27.14;38.75
28428;BME280;15662;49.128;8.520;2023-07-20T07:31:45;100335.72;;;27.17;38.51
28428;BME280;15662;49.128;8.520;2023-07-20T07:34:13;100333.88;;;27.18;38.45
28428;BME280;15662;49.128;8.520;2023-07-20T07:36:43;100337.44;;;27.18;38.41
28428;BME280;15662;49.128;8.520;2023-07-20T07:39:11;100338.00;;;27.22;38.35
28428;BME280;15662;49.128;8.520;2023-07-20T07:41:44;100343.88;;;27.27;38.44
28428;BME280;15662;49.128;8.520;2023-07-20T07:44:13;100334.41;;;27.31;38.21
28428;BME280;15662;49.128;8.520;2023-07-20T07:46:42;100321.50;;;27.33;38.25
28428;BME280;15662;49.128;8.520;2023-07-20T07:49:11;100334.38;;;27.41;37.71
28428;BME280;15662;49.128;8.520;2023-07-20T07:51:40;100332.06;;;27.46;37.79
28428;BME280;15662;49.128;8.520;2023-07-20T07:54:08;100328.50;;;27.45;37.55
28428;BME280;15662;49.128;8.520;2023-07-20T07:56:38;100331.78;;;27.49;37.27
28428;BME280;15662;49.128;8.520;2023-07-20T07:59:07;100335.91;;;27.53;36.77
28428;BME280;15662;49.128;8.520;2023-07-20T08:01:35;100336.47;;;27.57;36.51
28428;BME280;15662;49.128;8.520;2023-07-20T08:04:07;100340.03;;;27.57;36.15
28428;BME280;15662;49.128;8.520;2023-07-20T08:06:36;100339.03;;;27.58;35.93
28428;BME280;15662;49.128;8.520;2023-07-20T08:09:05;100325.00;;;27.53;36.10
28428;BME280;15662;49.128;8.520;2023-07-20T08:11:33;100333.56;;;27.58;36.18
28428;BME280;15662;49.128;8.520;2023-07-20T08:14:02;100315.72;;;27.46;36.11
28428;BME280;15662;49.128;8.520;2023-07-20T08:16:33;100324.59;;;27.48;35.83
28428;BME280;15662;49.128;8.520;2023-07-20T08:19:02;100342.63;;;27.59;35.79
28428;BME280;15662;49.128;8.520;2023-07-20T08:21:31;100345.19;;;27.60;35.62
28428;BME280;15662;49.128;8.520;2023-07-20T08:23:59;100333.13;;;27.63;35.98
28428;BME280;15662;49.128;8.520;2023-07-20T08:26:28;100336.88;;;27.62;35.87
28428;BME280;15662;49.128;8.520;2023-07-20T08:28:57;100337.88;;;27.61;35.76
28428;BME280;15662;49.128;8.520;2023-07-20T08:31:25;100328.28;;;27.57;35.67
28428;BME280;15662;49.128;8.520;2023-07-20T08:33:56;100341.06;;;27.56;35.71
28428;BME280;15662;49.128;8.520;2023-07-20T08:36:25;100339.47;;;27.53;35.66
28428;BME280;15662;49.128;8.520;2023-07-20T08:38:57;100340.66;;;27.51;35.59
28428;BME280;15662;49.128;8.520;2023-07-20T08:41:28;100321.06;;;27.38;35.58
28428;BME280;15662;49.128;8.520;2023-07-20T08:43:57;100334.34;;;27.50;35.71
28428;BME280;15662;49.128;8.520;2023-07-20T08:46:29;100336.47;;;27.57;35.77
28428;BME280;15662;49.128;8.520;2023-07-20T08:48:58;100335.72;;;27.64;35.78
28428;BME280;15662;49.128;8.520;2023-07-20T08:51:30;100326.22;;;27.68;35.86
28428;BME280;15662;49.128;8.520;2023-07-20T08:54:00;100332.94;;;27.84;35.61
28428;BME280;15662;49.128;8.520;2023-07-20T08:56:31;100327.56;;;27.92;35.49
28428;BME280;15662;49.128;8.520;2023-07-20T08:59:01;100333.91;;;28.10;35.30
28428;BME280;15662;49.128;8.520;2023-07-20T09:01:31;100320.78;;;28.23;35.33
28428;BME280;15662;49.128;8.520;2023-07-20T09:04:01;100331.03;;;28.39;34.96
28428;BME280;15662;49.128;8.520;2023-07-20T09:06:30;100321.44;;;28.53;34.94
28428;BME280;15662;49.128;8.520;2023-07-20T09:08:59;100320.00;;;28.67;34.97
28428;BME280;15662;49.128;8.520;2023-07-20T09:11:27;100331.84;;;28.75;34.56
28428;BME280;15662;49.128;8.520;2023-07-20T09:14:07;100315.00;;;28.80;34.07
28428;BME280;15662;49.128;8.520;2023-07-20T09:16:55;100330.34;;;28.81;34.13
28428;BME280;15662;49.128;8.520;2023-07-20T09:19:24;100317.91;;;28.78;34.24
28428;BME280;15662;49.128;8.520;2023-07-20T09:21:53;100312.75;;;28.75;33.64
28428;BME280;15662;49.128;8.520;2023-07-20T09:24:21;100317.19;;;28.76;33.34
28428;BME280;15662;49.128;8.520;2023-07-20T09:26:51;100323.66;;;28.75;33.53
28428;BME280;15662;49.128;8.520;2023-07-20T09:29:20;100319.91;;;28.76;33.09
28428;BME280;15662;49.128;8.520;2023-07-20T09:32:18;100318.44;;;28.82;33.15
28428;BME280;15662;49.128;8.520;2023-07-20T09:34:51;100311.59;;;28.78;32.79
28428;BME280;15662;49.128;8.520;2023-07-20T09:37:23;100317.44;;;28.83;32.75
28428;BME280;15662;49.128;8.520;2023-07-20T09:39:53;100327.63;;;28.81;32.74
28428;BME280;15662;49.128;8.520;2023-07-20T09:42:25;100314.38;;;28.86;32.71
28428;BME280;15662;49.128;8.520;2023-07-20T09:44:58;100306.56;;;28.91;32.59
28428;BME280;15662;49.128;8.520;2023-07-20T09:47:27;100305.63;;;29.00;32.26
28428;BME280;15662;49.128;8.520;2023-07-20T09:50:01;100303.53;;;29.12;31.69
28428;BME280;15662;49.128;8.520;2023-07-20T09:52:34;100300.44;;;29.15;31.84
28428;BME280;15662;49.128;8.520;2023-07-20T09:55:10;100296.94;;;29.23;31.45
28428;BME280;15662;49.128;8.520;2023-07-20T09:57:40;100308.22;;;29.28;31.82
28428;BME280;15662;49.128;8.520;2023-07-20T10:00:09;100309.59;;;29.32;31.55
28428;BME280;15662;49.128;8.520;2023-07-20T10:02:48;100312.38;;;29.40;31.14
28428;BME280;15662;49.128;8.520;2023-07-20T10:05:19;100305.25;;;29.47;30.78
28428;BME280;15662;49.128;8.520;2023-07-20T10:07:50;100304.06;;;29.50;31.02
28428;BME280;15662;49.128;8.520;2023-07-20T10:10:41;100297.91;;;29.48;31.04
28428;BME280;15662;49.128;8.520;2023-07-20T10:13:20;100286.09;;;29.39;30.43
28428;BME280;15662;49.128;8.520;2023-07-20T10:18:45;100287.31;;;29.45;30.07
28428;BME280;15662;49.128;8.520;2023-07-20T10:21:20;100275.16;;;29.31;30.17
28428;BME280;15662;49.128;8.520;2023-07-20T10:23:56;100274.50;;;29.37;29.93
28428;BME280;15662;49.128;8.520;2023-07-20T10:26:26;100267.09;;;29.29;29.78
28428;BME280;15662;49.128;8.520;2023-07-20T10:28:56;100272.06;;;29.34;29.74
28428;BME280;15662;49.128;8.520;2023-07-20T10:31:25;100269.03;;;29.37;29.83
28428;BME280;15662;49.128;8.520;2023-07-20T10:33:58;100269.72;;;29.39;29.38
28428;BME280;15662;49.128;8.520;2023-07-20T10:36:27;100272.97;;;29.43;29.49
28428;BME280;15662;49.128;8.520;2023-07-20T10:39:01;100264.13;;;29.49;29.48
28428;BME280;15662;49.128;8.520;2023-07-20T10:41:35;100266.34;;;29.53;29.61
28428;BME280;15662;49.128;8.520;2023-07-20T10:44:06;100252.25;;;29.58;29.85
28428;BME280;15662;49.128;8.520;2023-07-20T10:46:43;100260.47;;;29.66;29.49
28428;BME280;15662;49.128;8.520;2023-07-20T10:49:14;100249.00;;;29.63;29.57
28428;BME280;15662;49.128;8.520;2023-07-20T10:51:48;100241.50;;;29.65;29.04
28428;BME280;15662;49.128;8.520;2023-07-20T10:57:33;100245.97;;;29.74;28.63
28428;BME280;15662;49.128;8.520;2023-07-20T11:00:13;100237.78;;;29.74;28.53
28428;BME280;15662;49.128;8.520;2023-07-20T11:05:38;100236.97;;;29.81;28.50
28428;BME280;15662;49.128;8.520;2023-07-20T11:08:12;100244.44;;;29.79;28.24
28428;BME280;15662;49.128;8.520;2023-07-20T11:10:43;100237.81;;;29.82;28.55
28428;BME280;15662;49.128;8.520;2023-07-20T11:13:20;100237.13;;;29.88;28.03
28428;BME280;15662;49.128;8.520;2023-07-20T11:18:28;100233.03;;;29.92;28.14
28428;BME280;15662;49.128;8.520;2023-07-20T11:20:57;100225.53;;;29.94;28.03
28428;BME280;15662;49.128;8.520;2023-07-20T11:23:26;100218.03;;;29.96;28.02
28428;BME280;15662;49.128;8.520;2023-07-20T11:25:55;100226.72;;;30.00;27.64
28428;BME280;15662;49.128;8.520;2023-07-20T11:28:25;100220.25;;;30.01;27.76
28428;BME280;15662;49.128;8.520;2023-07-20T11:30:53;100214.25;;;29.89;27.71
28428;BME280;15662;49.128;8.520;2023-07-20T11:33:23;100217.16;;;29.88;27.46
28428;BME280;15662;49.128;8.520;2023-07-20T11:35:51;100205.19;;;29.89;26.95
28428;BME280;15662;49.128;8.520;2023-07-20T11:38:20;100201.94;;;29.85;27.43
28428;BME280;15662;49.128;8.520;2023-07-20T11:40:50;100203.47;;;29.79;28.01
28428;BME280;15662;49.128;8.520;2023-07-20T11:43:21;100200.75;;;29.88;27.85
28428;BME280;15662;49.128;8.520;2023-07-20T11:45:53;100201.28;;;29.91;27.48
28428;BME280;15662;49.128;8.520;2023-07-20T11:48:22;100193.09;;;29.91;28.04
28428;BME280;15662;49.128;8.520;2023-07-20T11:50:51;100197.88;;;30.05;27.50
28428;BME280;15662;49.128;8.520;2023-07-20T11:53:20;100197.53;;;30.08;27.35
28428;BME280;15662;49.128;8.520;2023-07-20T11:55:49;100177.38;;;30.01;27.55
28428;BME280;15662;49.128;8.520;2023-07-20T11:58:18;100178.06;;;30.12;27.20
28428;BME280;15662;49.128;8.520;2023-07-20T12:00:47;100186.66;;;30.17;27.46
28428;BME280;15662;49.128;8.520;2023-07-20T12:03:17;100173.44;;;30.12;27.37
28428;BME280;15662;49.128;8.520;2023-07-20T12:05:46;100174.34;;;30.21;27.12
28428;BME280;15662;49.128;8.520;2023-07-20T12:08:28;100180.16;;;30.26;27.45
28428;BME280;15662;49.128;8.520;2023-07-20T12:10:57;100176.22;;;30.37;27.11
28428;BME280;15662;49.128;8.520;2023-07-20T12:13:46;100163.06;;;30.40;26.54
28428;BME280;15662;49.128;8.520;2023-07-20T12:16:19;100163.72;;;30.42;27.18
28428;BME280;15662;49.128;8.520;2023-07-20T12:18:49;100173.47;;;30.45;26.88
28428;BME280;15662;49.128;8.520;2023-07-20T12:21:33;100171.75;;;30.44;26.80
28428;BME280;15662;49.128;8.520;2023-07-20T12:24:06;100162.03;;;30.49;26.67
28428;BME280;15662;49.128;8.520;2023-07-20T12:26:35;100163.72;;;30.50;26.53
28428;BME280;15662;49.128;8.520;2023-07-20T12:29:04;100158.59;;;30.55;26.39
28428;BME280;15662;49.128;8.520;2023-07-20T12:31:37;100152.59;;;30.60;26.40
28428;BME280;15662;49.128;8.520;2023-07-20T12:34:06;100147.28;;;30.67;26.42
28428;BME280;15662;49.128;8.520;2023-07-20T12:36:39;100148.81;;;30.69;26.37
28428;BME280;15662;49.128;8.520;2023-07-20T12:39:10;100154.28;;;30.69;26.68
28428;BME280;15662;49.128;8.520;2023-07-20T12:41:40;100141.97;;;30.65;26.62
28428;BME280;15662;49.128;8.520;2023-07-20T12:44:08;100154.63;;;30.66;26.41
28428;BME280;15662;49.128;8.520;2023-07-20T12:46:39;100146.09;;;30.61;26.38
28428;BME280;15662;49.128;8.520;2023-07-20T12:49:08;100144.22;;;30.62;26.47
28428;BME280;15662;49.128;8.520;2023-07-20T12:51:37;100147.28;;;30.58;26.46
28428;BME280;15662;49.128;8.520;2023-07-20T12:54:07;100137.69;;;30.63;26.22
28428;BME280;15662;49.128;8.520;2023-07-20T12:56:35;100132.22;;;30.63;26.08
28428;BME280;15662;49.128;8.520;2023-07-20T12:59:07;100123.00;;;30.72;26.13
28428;BME280;15662;49.128;8.520;2023-07-20T13:01:36;100137.53;;;30.72;25.91
28428;BME280;15662;49.128;8.520;2023-07-20T13:04:07;100126.75;;;30.79;26.11
28428;BME280;15662;49.128;8.520;2023-07-20T13:06:43;100124.34;;;30.84;26.00
28428;BME280;15662;49.128;8.520;2023-07-20T13:09:12;100125.00;;;30.94;25.96
28428;BME280;15662;49.128;8.520;2023-07-20T13:11:41;100117.78;;;30.93;25.55
28428;BME280;15662;49.128;8.520;2023-07-20T13:14:09;100117.78;;;31.01;25.72
28428;BME280;15662;49.128;8.520;2023-07-20T13:16:40;100120.50;;;31.01;25.83
28428;BME280;15662;49.128;8.520;2023-07-20T13:19:10;100115.56;;;30.97;25.70
28428;BME280;15662;49.128;8.520;2023-07-20T13:21:40;100121.03;;;30.97;25.76
28428;BME280;15662;49.128;8.520;2023-07-20T13:24:09;100109.03;;;30.98;25.99
28428;BME280;15662;49.128;8.520;2023-07-20T13:26:39;100112.94;;;31.03;25.62
28428;BME280;15662;49.128;8.520;2023-07-20T13:29:29;100106.94;;;31.08;25.66